METAR的历史 Teuge International Airport (EHTE)

2022年7月4日

时间 代码 天气 温度 能见度 天花板 METAR/SPECI
10:55 下午
V
59 °F 6¼ mi+ - 290° 290° 2 kt METAR EHDL 042055Z AUTO 29002KT 9999 FEW051 15/10 Q1021 BLU
10:25 下午
V
61 °F 6¼ mi+ - 300° 300° 5 kt METAR EHDL 042025Z AUTO 30005KT 9999 NCD 16/10 Q1020 BLU
9:55 下午
V
63 °F 6¼ mi+ 20.000 ft 310° 310° 4 kt METAR EHDL 041955Z AUTO 31004KT 270V340 9999 OVC200 17/10 Q1020 BLU
9:25 下午
V
66 °F 6¼ mi+ - 320° 320° 5 kt METAR EHDL 041925Z AUTO 32005KT 280V010 9999 SCT048 SCT053 19/10 Q1019 BLU
8:55 下午
V
66 °F 6¼ mi+ 4.700 ft 320° 320° 7 kt METAR EHDL 041855Z AUTO 32007KT 280V010 9999 OVC047 19/11 Q1019 BLU
8:25 下午
V
68 °F 6¼ mi+ - 320° 320° 9 kt METAR EHDL 041825Z AUTO 32009KT 270V050 9999 FEW052 20/11 Q1019 BLU
7:55 下午
V
70 °F 6¼ mi+ - 320° 320° 7 kt METAR EHDL 041755Z AUTO 32007KT 270V020 9999 FEW050 21/11 Q1019 BLU
7:25 下午
V
70 °F 6¼ mi+ - 310° 310° 8 kt METAR EHDL 041725Z AUTO 31008KT 230V360 9999 FEW057 21/11 Q1019 BLU
6:55 下午
V
72 °F 6¼ mi+ 4.900 ft 280° 280° 9 kt METAR EHDL 041655Z AUTO 28009KT 200V360 9999 BKN049 BKN054 22/10 Q1019 BLU
6:25 下午
V
72 °F 6¼ mi+ 4.900 ft 270° 270° 9 kt METAR EHDL 041625Z AUTO 27009KT 170V330 9999 BKN049 BKN056 22/10 Q1019 BLU
5:55 下午
V
72 °F 6¼ mi+ 5.000 ft 260° 260° 8 kt METAR EHDL 041555Z AUTO 26008KT 220V360 9999 BKN050 22/10 Q1019 BLU
5:25 下午
V
72 °F 6¼ mi+ 5.000 ft 270° 270° 8 kt METAR EHDL 041525Z AUTO 27008KT 210V020 9999 BKN050 BKN062 22/10 Q1019 BLU
4:55 下午
V
72 °F 6¼ mi+ - 260° 260° 12 kt METAR EHDL 041455Z AUTO 26012KT 210V330 9999 FEW051 22/09 Q1019 BLU
4:25 下午
V
73 °F 6¼ mi+ - 270° 270° 11 kt METAR EHDL 041425Z AUTO 27011KT 190V320 9999 NCD 23/10 Q1019 BLU
3:55 下午
V
72 °F 6¼ mi+ 4.600 ft 300° 300° 9 kt METAR EHDL 041355Z AUTO 30009KT 190V360 9999 BKN046 BKN054 22/10 Q1019 BLU
3:25 下午
V
73 °F 6¼ mi+ - Var Var 9 kt METAR EHDL 041325Z AUTO VRB09KT 9999 SCT047 23/11 Q1019 BLU
2:55 下午
V
70 °F 6¼ mi+ 4.200 ft 290° 290° 7 kt METAR EHDL 041255Z AUTO 29007KT 190V350 9999 BKN042 BKN047 21/11 Q1019 BLU
2:25 下午
V
70 °F 6¼ mi+ 6.300 ft 280° 280° 10 kt METAR EHDL 041225Z AUTO 28010KT 210V340 9999 SCT042 SCT050 BKN063 21/12 Q1020 BLU
1:55 下午
V
70 °F 6¼ mi+ 6.500 ft Var Var 10 kt METAR EHDL 041155Z AUTO VRB10KT 9999 FEW041 SCT059 BKN065 21/11 Q1020 BLU
1:25 下午
V
72 °F 6¼ mi+ - 230° 230° 10 kt METAR EHDL 041125Z AUTO 23010KT 190V310 9999 FEW040 SCT067 22/10 Q1020 BLU
12:55 下午
V
68 °F 6¼ mi+ 3.800 ft 240° 240° 10 kt METAR EHDL 041055Z AUTO 24010KT 200V320 9999 SCT031 BKN038 BKN072 20/12 Q1020 BLU
12:25 下午
V
72 °F 6¼ mi+ 6.300 ft 250° 250° 10 kt METAR EHDL 041025Z AUTO 25010KT 220V010 9999 FEW034 BKN063 BKN069 22/13 Q1020 BLU
11:55 上午
V
70 °F 6¼ mi+ - 220° 220° 9 kt METAR EHDL 040955Z AUTO 22009KT 140V300 9999 SCT024 SCT028 21/13 Q1020 WHT
11:25 上午
M
66 °F 6¼ mi+ 2.500 ft 210° 210° 10 kt METAR EHDL 040925Z AUTO 21010KT 140V300 9999 SCT020 BKN025 BKN028 19/13 Q1020 WHT
10:55 上午
V
66 °F 6¼ mi+ - 230° 230° 9 kt METAR EHDL 040855Z AUTO 23009KT 180V280 9999 SCT049 19/14 Q1020 BLU
10:25 上午
M
64 °F 6¼ mi+ 1.600 ft 210° 210° 9 kt METAR EHDL 040825Z AUTO 21009KT 160V280 9999 BKN016 BKN019 OVC050 18/14 Q1020 WHT
9:55 上午
V
63 °F 6¼ mi+ - 200° 200° 7 kt METAR EHDL 040755Z AUTO 20007KT 140V280 9999 FEW015 17/13 Q1020 BLU
9:25 上午
M
63 °F 6¼ mi+ 1.600 ft 210° 210° 5 kt METAR EHDL 040725Z AUTO 21005KT 140V250 9999 SCT012 BKN016 17/13 Q1020 GRN
8:55 上午
M
61 °F 6¼ mi+ 1.600 ft 210° 210° 6 kt METAR EHDL 040655Z AUTO 21006KT 130V260 9999 SCT013 OVC016 16/13 Q1020 GRN
8:25 上午
M
61 °F 6¼ mi+ 1.400 ft 210° 210° 6 kt METAR EHDL 040625Z AUTO 21006KT 140V270 9999 OVC014 16/13 Q1020 GRN
7:55 上午
V
59 °F 6¼ mi+ - 220° 220° 5 kt METAR EHDL 040555Z AUTO 22005KT 130V280 9999 NCD 15/13 Q1020 BLU
7:25 上午
V
57 °F 6¼ mi+ - Var Var 2 kt METAR EHDL 040525Z AUTO VRB02KT 9999 NCD 14/12 Q1020 BLU
6:55 上午
V
54 °F 6¼ mi+ 27.000 ft 120° 120° 3 kt METAR EHDL 040455Z AUTO 12003KT 100V180 9999 OVC270 12/11 Q1020 BLU
6:25 上午
V
50 °F 6¼ mi+ - Var Var 2 kt METAR EHDL 040425Z AUTO VRB02KT 9999 FEW064 10/10 Q1020 BLU
5:55 上午
V
46 °F 6¼ mi+ - 120° 120° 3 kt METAR EHDL 040355Z AUTO 12003KT 120V180 9999 NCD 08/07 Q1020 BLU
5:25 上午
V
46 °F 6¼ mi+ - 150° 150° 1 kt METAR EHDL 040325Z AUTO 15001KT 9999 NCD 08/07 Q1019 BLU
4:55 上午
V
46 °F 6¼ mi+ - 100° 100° 3 kt METAR EHDL 040255Z AUTO 10003KT 9999 NCD 08/08 Q1019 BLU
4:25 上午
V
46 °F 6¼ mi+ - Var Var 2 kt METAR EHDL 040225Z AUTO VRB02KT 9999 NCD 08/07 Q1019 BLU
3:55 上午
V
48 °F 6¼ mi+ - 100° 100° 3 kt METAR EHDL 040155Z AUTO 10003KT 9999 NCD 09/08 Q1019 BLU
3:25 上午
V
50 °F 6¼ mi+ - 150° 150° 2 kt METAR EHDL 040125Z AUTO 15002KT 9999 NCD 10/09 Q1020 BLU
2:55 上午
V
50 °F 6¼ mi+ - 130° 130° 2 kt METAR EHDL 040055Z AUTO 13002KT 9999 NCD 10/09 Q1020 BLU
2:25 上午
V
50 °F 6¼ mi+ - 110° 110° 2 kt METAR EHDL 040025Z AUTO 11002KT 9999 NCD 10/09 Q1020 BLU RMK CB INFO NOT AVBL
1:55 上午
V
52 °F 6¼ mi+ 26.000 ft Var Var 2 kt METAR EHDL 032355Z AUTO VRB02KT 9999 OVC260 11/09 Q1020 BLU
1:25 上午
V
52 °F 6¼ mi+ 25.000 ft Var Var 2 kt METAR EHDL 032325Z AUTO VRB02KT 9999 OVC250 11/10 Q1020 BLU
12:55 上午
V
52 °F 6¼ mi+ 22.000 ft Var Var 2 kt METAR EHDL 032255Z AUTO VRB02KT 9999 OVC220 11/10 Q1020 BLU
12:25 上午
V
54 °F 6¼ mi+ - 240° 240° 1 kt METAR EHDL 032225Z AUTO 24001KT 9999 NCD 12/10 Q1020 BLU

2022年7月3日

时间 代码 天气 温度 能见度 天花板 METAR/SPECI
11:55 下午
V
54 °F 6¼ mi+ - 260° 260° 3 kt METAR EHDL 032155Z AUTO 26003KT 220V280 9999 NCD 12/10 Q1020 BLU
11:25 下午
V
55 °F 6¼ mi+ - 280° 280° 4 kt METAR EHDL 032125Z AUTO 28004KT 9999 NCD 13/10 Q1020 BLU
10:55 下午
V
57 °F 6¼ mi+ - 240° 240° 3 kt METAR EHDL 032055Z AUTO 24003KT 180V260 9999 NCD 14/11 Q1020 BLU
10:25 下午
V
61 °F 6¼ mi+ - 300° 300° 3 kt METAR EHDL 032025Z AUTO 30003KT 280V350 9999 NCD 16/10 Q1019 BLU
9:55 下午
V
63 °F 6¼ mi+ - 290° 290° 5 kt METAR EHDL 031955Z AUTO 29005KT 240V340 9999 NCD 17/11 Q1019 BLU
9:25 下午
V
64 °F 6¼ mi+ - 280° 280° 6 kt METAR EHDL 031925Z AUTO 28006KT 220V360 9999 NCD 18/11 Q1019 BLU
8:55 下午
V
66 °F 6¼ mi+ 5.200 ft 290° 290° 9 kt METAR EHDL 031855Z AUTO 29009KT 220V360 9999 FEW037 SCT047 BKN052 19/11 Q1019 BLU
8:25 下午
V
68 °F 6¼ mi+ 4.600 ft 300° 300° 7 kt METAR EHDL 031825Z AUTO 30007KT 240V010 9999 FEW037 SCT041 BKN046 20/11 Q1019 BLU
7:55 下午
V
66 °F 6¼ mi+ - 270° 270° 9 kt METAR EHDL 031755Z AUTO 27009KT 230V350 9999 FEW055 SCT060 19/10 Q1018 BLU
7:25 下午
V
68 °F 6¼ mi+ 4.200 ft 280° 280° 9 kt METAR EHDL 031725Z AUTO 28009KT 210V350 9999 SCT036 BKN042 BKN047 20/11 Q1018 BLU
6:55 下午
V
68 °F 6¼ mi+ 3.700 ft Var Var 7 kt METAR EHDL 031655Z AUTO VRB07KT 9999 SCT033 BKN037 BKN042 20/12 Q1018 BLU
6:25 下午
V
68 °F 6¼ mi+ 5.600 ft 280° 280° 9 kt METAR EHDL 031625Z AUTO 28009KT 210V350 9999 FEW033 SCT038 BKN056 20/12 Q1018 BLU
5:55 下午
V
70 °F 6¼ mi+ 3.900 ft 280° 280° 11 kt METAR EHDL 031555Z AUTO 28011KT 240V030 9999 SCT033 BKN039 OVC051 21/13 Q1018 BLU
5:25 下午
V
70 °F 6¼ mi+ 3.400 ft 270° 270° 12 kt METAR EHDL 031525Z AUTO 27012KT 210V350 9999 BKN034 BKN042 BKN053 21/12 Q1018 BLU
4:55 下午
V
72 °F 6¼ mi+ 3.500 ft 260° 260° 13 kt METAR EHDL 031455Z AUTO 26013KT 180V350 9999 BKN035 BKN045 BKN053 22/13 Q1018 BLU
4:25 下午
V
72 °F 6¼ mi+ - 280° 280° 10 kt METAR EHDL 031425Z AUTO 28010KT 210V360 9999 SCT037 SCT042 22/13 Q1018 BLU
3:55 下午
V
72 °F 6¼ mi+ 7.100 ft 240° 240° 12 kt METAR EHDL 031355Z AUTO 24012KT 200V330 9999 FEW063 BKN071 BKN077 22/11 Q1018 BLU
3:25 下午
V
72 °F 6¼ mi+ 8.700 ft 230° 230° 13 kt METAR EHDL 031325Z AUTO 23013KT 160V310 9999 SCT081 OVC087 22/11 Q1018 BLU
2:55 下午
V
73 °F 6¼ mi+ - 260° 260° 10 kt METAR EHDL 031255Z AUTO 26010KT 170V320 9999 FEW041 SCT083 23/12 Q1018 BLU
2:25 下午
V
72 °F 6¼ mi+ 7.900 ft 250° 250° 13 kt METAR EHDL 031225Z AUTO 25013KT 140V300 9999 SCT043 SCT048 BKN079 22/11 Q1018 BLU
1:55 下午
V
73 °F 6¼ mi+ - 230° 230° 12 kt METAR EHDL 031155Z AUTO 23012KT 130V290 9999 NCD 23/11 Q1018 BLU
1:25 下午
V
72 °F 6¼ mi+ - 220° 220° 9 kt METAR EHDL 031125Z AUTO 22009KT 150V290 9999 SCT035 22/13 Q1018 BLU
12:55 下午
V
70 °F 6¼ mi+ 4.400 ft 240° 240° 8 kt METAR EHDL 031055Z AUTO 24008KT 170V320 9999 SCT034 SCT038 BKN044 21/13 Q1018 BLU
12:25 下午
V
72 °F 6¼ mi+ - 230° 230° 8 kt METAR EHDL 031025Z AUTO 23008KT 150V290 9999 SCT031 SCT044 22/13 Q1018 BLU
11:55 上午
V
70 °F 6¼ mi+ - 240° 240° 8 kt METAR EHDL 030955Z AUTO 24008KT 160V320 9999 FEW031 21/13 Q1018 BLU
11:25 上午
V
70 °F 6¼ mi+ - 260° 260° 8 kt METAR EHDL 030925Z AUTO 26008KT 180V310 9999 SCT034 SCT060 21/12 Q1018 BLU
10:55 上午
V
70 °F 6¼ mi+ - 250° 250° 6 kt METAR EHDL 030855Z AUTO 25006KT 140V290 9999 FEW033 21/12 Q1018 BLU
10:25 上午
V
70 °F 6¼ mi+ - Var Var 9 kt METAR EHDL 030825Z AUTO VRB09KT 9999 NCD 21/12 Q1018 BLU
9:55 上午
V
68 °F 6¼ mi+ - Var Var 5 kt METAR EHDL 030755Z AUTO VRB05KT 9999 NCD 20/13 Q1017 BLU
9:25 上午
V
66 °F 6¼ mi+ - 280° 280° 5 kt METAR EHDL 030725Z AUTO 28005KT 220V350 9999 NCD 19/12 Q1017 BLU
8:55 上午
V
64 °F 6¼ mi+ - 250° 250° 5 kt METAR EHDL 030655Z AUTO 25005KT 160V330 9999 NCD 18/13 Q1017 BLU
8:25 上午
V
63 °F 6¼ mi+ 22.000 ft 250° 250° 5 kt METAR EHDL 030625Z AUTO 25005KT 190V330 9999 SCT062 SCT071 OVC220 17/12 Q1017 BLU
7:55 上午
V
61 °F 6¼ mi+ 22.000 ft Var Var 2 kt METAR EHDL 030555Z AUTO VRB02KT 9999 SCT084 BKN220 16/13 Q1017 BLU
7:25 上午
V
59 °F 6¼ mi+ 8.400 ft Var Var 1 kt METAR EHDL 030525Z AUTO VRB01KT 9999 FEW068 SCT075 OVC084 15/12 Q1017 BLU
6:55 上午
V
54 °F 6¼ mi+ - Var Var 1 kt METAR EHDL 030455Z AUTO VRB01KT 9999 SCT220 12/11 Q1017 BLU
6:25 上午
V
54 °F 6¼ mi+ - Var Var 1 kt METAR EHDL 030425Z AUTO VRB01KT 9999 FEW088 SCT250 12/11 Q1017 BLU
5:55 上午
V
52 °F 6¼ mi+ 25.000 ft 100° 100° 1 kt METAR EHDL 030355Z AUTO 10001KT 9999 FEW073 OVC250 11/10 Q1017 BLU
5:25 上午
V
52 °F 6¼ mi+ - 220° 220° 1 kt METAR EHDL 030325Z AUTO 22001KT 9999 SCT260 11/10 Q1017 BLU
4:55 上午
V
54 °F 6¼ mi+ - Var 000° 0 kt METAR EHDL 030255Z AUTO 00000KT 9999 NCD 12/10 Q1017 BLU
4:25 上午
V
55 °F 6¼ mi+ - 020° 020° 1 kt METAR EHDL 030225Z AUTO 02001KT 9999 NCD 13/11 Q1017 BLU
3:55 上午
V
55 °F 6¼ mi+ - Var Var 2 kt METAR EHDL 030155Z AUTO VRB02KT 9999 NCD 13/11 Q1017 BLU
3:25 上午
V
54 °F 6¼ mi+ - 260° 260° 3 kt METAR EHDL 030125Z AUTO 26003KT 230V040 9999 SCT130 12/10 Q1017 BLU
2:55 上午
V
55 °F 6¼ mi+ - 170° 170° 1 kt METAR EHDL 030055Z AUTO 17001KT 9999 SCT120 13/11 Q1017 BLU
2:25 上午
V
55 °F 6¼ mi+ 12.000 ft 120° 120° 2 kt METAR EHDL 030025Z AUTO 12002KT 9999 OVC120 13/11 Q1017 BLU
1:55 上午
V
57 °F 6¼ mi+ 13.000 ft 150° 150° 1 kt METAR EHDL 022355Z AUTO 15001KT 9999 OVC130 14/11 Q1017 BLU
1:25 上午
V
57 °F 6¼ mi+ 13.000 ft 140° 140° 2 kt METAR EHDL 022325Z AUTO 14002KT 9999 OVC130 14/11 Q1017 BLU
12:55 上午
V
57 °F 6¼ mi+ - 100° 100° 1 kt METAR EHDL 022255Z AUTO 10001KT 9999 NCD 14/12 Q1017 BLU
12:25 上午
V
57 °F 6¼ mi+ 18.000 ft 120° 120° 2 kt METAR EHDL 022225Z AUTO 12002KT 9999 FEW077 OVC180 14/12 Q1018 BLU

2022年7月2日

时间 代码 天气 温度 能见度 天花板 METAR/SPECI
11:55 下午
V
57 °F 6¼ mi+ 14.000 ft 110° 110° 3 kt METAR EHDL 022155Z AUTO 11003KT 9999 FEW081 OVC140 14/12 Q1018 BLU
11:25 下午
V
59 °F 6¼ mi+ - 100° 100° 2 kt METAR EHDL 022125Z AUTO 10002KT 9999 FEW200 15/12 Q1018 BLU
10:55 下午
V
61 °F 6¼ mi+ 13.000 ft Var 000° 0 kt METAR EHDL 022055Z AUTO 00000KT 9999 BKN130 BKN220 16/13 Q1018 BLU
10:25 下午
V
63 °F 6¼ mi+ 13.000 ft 060° 060° 1 kt METAR EHDL 022025Z AUTO 06001KT 9999 OVC130 17/13 Q1018 BLU
9:55 下午
V
64 °F 6¼ mi+ 13.000 ft 060° 060° 1 kt METAR EHDL 021955Z AUTO 06001KT 9999 OVC130 18/13 Q1018 BLU
9:25 下午
V
66 °F 6¼ mi+ 13.000 ft 270° 270° 2 kt METAR EHDL 021925Z AUTO 27002KT 9999 OVC130 19/14 Q1018 BLU
8:55 下午
V
72 °F 6¼ mi+ 14.000 ft 260° 260° 3 kt METAR EHDL 021855Z AUTO 26003KT 200V270 9999 OVC140 22/11 Q1018 BLU
8:25 下午
V
73 °F 6¼ mi+ 13.000 ft 250° 250° 3 kt METAR EHDL 021825Z AUTO 25003KT 190V290 9999 FEW097 OVC130 23/11 Q1018 BLU
7:55 下午
V
73 °F 6¼ mi+ 12.000 ft 230° 230° 4 kt METAR EHDL 021755Z AUTO 23004KT 150V290 9999 OVC120 23/11 Q1018 BLU
7:25 下午
V
73 °F 6¼ mi+ 14.000 ft 210° 210° 3 kt METAR EHDL 021725Z AUTO 21003KT 170V290 9999 OVC140 23/10 Q1018 BLU
6:55 下午
V
73 °F 6¼ mi+ 18.000 ft 220° 220° 5 kt METAR EHDL 021655Z AUTO 22005KT 160V270 9999 SCT069 OVC180 23/10 Q1018 BLU
6:25 下午
V
73 °F 6¼ mi+ 14.000 ft 200° 200° 5 kt METAR EHDL 021625Z AUTO 20005KT 120V260 9999 FEW058 OVC140 23/10 Q1019 BLU
5:55 下午
V
73 °F 6¼ mi+ 16.000 ft 210° 210° 6 kt METAR EHDL 021555Z AUTO 21006KT 140V270 9999 SCT068 OVC160 23/10 Q1019 BLU
5:25 下午
V
75 °F 6¼ mi+ 7.000 ft 210° 210° 8 kt METAR EHDL 021525Z AUTO 21008KT 140V270 9999 BKN070 OVC150 24/10 Q1019 BLU
4:55 下午
V
75 °F 6¼ mi+ 6.700 ft 210° 210° 8 kt METAR EHDL 021455Z AUTO 21008KT 130V290 9999 FEW061 BKN067 BKN170 24/09 Q1019 BLU
较旧的数据

下载我们的应用程序

在您的手机和平板电脑上轻松访问所有航空天气。
有许多网站上没有的功能,如离线支持和个人机场列表。

Studio Eveline

Benalmádena
España

我们和第三方通过cookies跟踪您在我们网站上的上网行为。如果您继续,我们认为您同意我们的cookie政策。 了解更多